Time;durP1;ratioP1;P1;durP2;ratioP2;P2;SDS_P1;SDS_P2;PMS_P1;PMS_P2;Temp;Humidity;BMP_temperature;BMP_pressure;BME280_temperature;BME280_humidity;BME280_pressure;Samples;Min_cycle;Max_cycle;Signal;HPM_P1;HPM_P2
2021/01/16 00:00:26;;;;;;;7.75;6.28;;;;;;;;;;5073999;28;20204;-60
2021/01/16 00:02:53;;;;;;;9.48;6.90;;;;;;;;;;5073652;28;20221;-60
2021/01/16 00:05:21;;;;;;;9.07;7.10;;;;;;;;;;5073638;28;20205;-60
2021/01/16 00:07:48;;;;;;;9.40;6.45;;;;;;;;;;5073692;28;20217;-60
2021/01/16 00:10:16;;;;;;;8.48;7.30;;;;;;;;;;5073540;28;20669;-60
2021/01/16 00:12:49;;;;;;;7.82;7.00;;;;;;;;;;5073954;28;20229;-59
2021/01/16 00:15:16;;;;;;;6.80;6.10;;;;;;;;;;5073742;28;20268;-60
2021/01/16 00:17:44;;;;;;;7.75;6.93;;;;;;;;;;5073627;28;20204;-60
2021/01/16 00:20:11;;;;;;;8.35;6.80;;;;;;;;;;5073643;28;20205;-59
2021/01/16 00:22:47;;;;;;;9.98;6.60;;;;;;;;;;5074591;28;20201;-60
2021/01/16 00:25:14;;;;;;;10.00;7.32;;;;;;;;;;5077592;28;20189;-59
2021/01/16 00:27:40;;;;;;;12.07;7.35;;;;;;;;;;5077494;28;20220;-60
2021/01/16 00:30:08;;;;;;;8.77;6.65;;;;;;;;;;5077726;28;20258;-60
2021/01/16 00:32:35;;;;;;;7.95;7.10;;;;;;;;;;5077450;28;20578;-59
2021/01/16 00:35:04;;;;;;;7.75;6.95;;;;;;;;;;5077759;28;20213;-61
2021/01/16 00:37:31;;;;;;;8.18;6.88;;;;;;;;;;5077824;28;20200;-59
2021/01/16 00:39:58;;;;;;;7.95;5.55;;;;;;;;;;5090143;28;20735;-60
2021/01/16 00:42:25;;;;;;;8.88;6.40;;;;;;;;;;5086512;28;20204;-60
2021/01/16 00:44:51;;;;;;;7.78;6.43;;;;;;;;;;5077733;28;20623;-59
2021/01/16 00:47:18;;;;;;;9.35;5.55;;;;;;;;;;5078802;28;20251;-60
2021/01/16 00:49:45;;;;;;;8.45;4.35;;;;;;;;;;5085548;28;20201;-60
2021/01/16 00:52:12;;;;;;;4.07;3.67;;;;;;;;;;5079662;28;20205;-60
2021/01/16 00:54:39;;;;;;;4.30;3.55;;;;;;;;;;5089540;28;20221;-60
2021/01/16 00:57:06;;;;;;;5.47;3.45;;;;;;;;;;5088142;28;20205;-60
2021/01/16 00:59:33;;;;;;;5.13;4.22;;;;;;;;;;5088220;28;20204;-59
2021/01/16 01:01:59;;;;;;;4.95;3.50;;;;;;;;;;5089424;28;20212;-60
2021/01/16 01:04:26;;;;;;;4.70;4.30;;;;;;;;;;5082321;28;20228;-59
2021/01/16 01:06:53;;;;;;;4.80;3.90;;;;;;;;;;5082299;28;20619;-60
2021/01/16 01:09:20;;;;;;;5.15;4.20;;;;;;;;;;5081231;28;20221;-59
2021/01/16 01:11:47;;;;;;;5.60;3.80;;;;;;;;;;5078666;28;20196;-60
2021/01/16 01:14:14;;;;;;;5.00;4.00;;;;;;;;;;5076470;28;20224;-61
2021/01/16 01:16:41;;;;;;;5.88;4.78;;;;;;;;;;5077599;28;20201;-61
2021/01/16 01:19:08;;;;;;;5.28;4.47;;;;;;;;;;5077069;28;20208;-60
2021/01/16 01:21:34;;;;;;;5.32;4.82;;;;;;;;;;5076972;28;20201;-60
2021/01/16 01:24:01;;;;;;;4.53;3.92;;;;;;;;;;5077448;28;20228;-61
2021/01/16 01:26:29;;;;;;;4.47;3.67;;;;;;;;;;5078704;28;20208;-60
2021/01/16 01:28:55;;;;;;;4.85;4.35;;;;;;;;;;5078872;28;20547;-60
2021/01/16 01:31:22;;;;;;;4.78;3.83;;;;;;;;;;5078328;28;20688;-60
2021/01/16 01:33:49;;;;;;;5.72;5.13;;;;;;;;;;5075894;28;20225;-60
2021/01/16 01:36:15;;;;;;;4.93;4.32;;;;;;;;;;5076241;28;20201;-60
2021/01/16 01:38:42;;;;;;;4.43;3.72;;;;;;;;;;5076483;28;20192;-60
2021/01/16 01:41:09;;;;;;;6.35;4.40;;;;;;;;;;5076663;28;20621;-60
2021/01/16 01:43:37;;;;;;;4.90;4.40;;;;;;;;;;5075726;28;20715;-60
2021/01/16 01:46:03;;;;;;;5.88;4.20;;;;;;;;;;5075896;28;20205;-61
2021/01/16 01:48:31;;;;;;;5.93;5.22;;;;;;;;;;5075948;28;20221;-60
2021/01/16 01:51:00;;;;;;;5.60;4.80;;;;;;;;;;5075773;28;20209;-60
2021/01/16 01:53:27;;;;;;;5.53;4.05;;;;;;;;;;5075669;28;20221;-60
2021/01/16 01:55:55;;;;;;;5.32;4.20;;;;;;;;;;5075452;28;20220;-61
2021/01/16 01:58:24;;;;;;;4.90;4.10;;;;;;;;;;5075553;28;20218;-62
2021/01/16 02:00:52;;;;;;;6.30;4.18;;;;;;;;;;5075639;28;20288;-59
2021/01/16 02:03:21;;;;;;;3.88;3.47;;;;;;;;;;5075286;28;20229;-60
2021/01/16 02:05:48;;;;;;;7.60;4.43;;;;;;;;;;5074884;28;20201;-60
2021/01/16 02:08:14;;;;;;;5.15;4.30;;;;;;;;;;5075258;28;20213;-61
2021/01/16 02:10:41;;;;;;;4.88;3.88;;;;;;;;;;5075220;28;20231;-60
2021/01/16 02:13:08;;;;;;;5.90;5.30;;;;;;;;;;5075287;28;20229;-60
2021/01/16 02:15:39;;;;;;;5.10;4.45;;;;;;;;;;5075300;28;20573;-61
2021/01/16 02:18:11;;;;;;;5.03;4.43;;;;;;;;;;5074990;28;20650;-60
2021/01/16 02:20:38;;;;;;;5.75;4.38;;;;;;;;;;5075034;28;20190;-61
2021/01/16 02:23:23;;;;;;;4.75;4.10;;;;;;;;;;5074856;28;20236;-61
2021/01/16 02:26:00;;;;;;;5.30;4.50;;;;;;;;;;5077423;28;20189;-60
2021/01/16 02:28:31;;;;;;;6.30;4.80;;;;;;;;;;5094176;28;20197;-61
2021/01/16 02:30:58;;;;;;;6.35;4.85;;;;;;;;;;5083251;28;20189;-61
2021/01/16 02:33:26;;;;;;;4.70;4.28;;;;;;;;;;5078553;28;20221;-61
2021/01/16 02:36:00;;;;;;;5.50;4.60;;;;;;;;;;5075198;28;20208;-60
2021/01/16 02:38:31;;;;;;;6.45;4.90;;;;;;;;;;5075026;28;20243;-61
2021/01/16 02:41:01;;;;;;;6.68;5.25;;;;;;;;;;5076652;28;20182;-60
2021/01/16 02:43:35;;;;;;;6.50;4.97;;;;;;;;;;5074456;28;20224;-60
2021/01/16 02:46:11;;;;;;;7.30;5.10;;;;;;;;;;5073559;28;20207;-59
2021/01/16 02:48:48;;;;;;;5.68;4.32;;;;;;;;;;5074507;28;20284;-60
2021/01/16 02:51:17;;;;;;;6.60;4.63;;;;;;;;;;5074692;28;20185;-61
2021/01/16 02:53:45;;;;;;;5.55;4.53;;;;;;;;;;5074593;28;20229;-60
2021/01/16 02:56:15;;;;;;;6.43;5.22;;;;;;;;;;5075137;28;20255;-60
2021/01/16 02:58:43;;;;;;;6.10;4.85;;;;;;;;;;5075061;28;20201;-61
2021/01/16 03:01:10;;;;;;;6.70;4.95;;;;;;;;;;5074730;28;20201;-60
2021/01/16 03:03:39;;;;;;;5.63;5.03;;;;;;;;;;5076376;28;20220;-60
2021/01/16 03:06:06;;;;;;;5.90;5.20;;;;;;;;;;5074439;28;20206;-61
2021/01/16 03:08:34;;;;;;;6.57;5.03;;;;;;;;;;5074053;28;20303;-60
2021/01/16 03:11:01;;;;;;;5.05;4.55;;;;;;;;;;5074540;28;20204;-60
2021/01/16 03:13:30;;;;;;;6.47;5.22;;;;;;;;;;5074046;28;20708;-59
2021/01/16 03:15:58;;;;;;;5.63;4.90;;;;;;;;;;5073986;28;20205;-61
2021/01/16 03:18:25;;;;;;;5.35;4.70;;;;;;;;;;5074612;28;20201;-60
2021/01/16 03:20:54;;;;;;;7.07;4.75;;;;;;;;;;5074028;28;20220;-60
2021/01/16 03:23:21;;;;;;;6.55;4.70;;;;;;;;;;5074035;28;20594;-60
2021/01/16 03:25:48;;;;;;;5.78;4.30;;;;;;;;;;5074427;28;20274;-58
2021/01/16 03:28:14;;;;;;;7.40;5.10;;;;;;;;;;5074445;28;20645;-60
2021/01/16 03:30:41;;;;;;;5.97;4.55;;;;;;;;;;5076097;28;20583;-60
2021/01/16 03:33:09;;;;;;;5.13;4.57;;;;;;;;;;5093015;28;20285;-60
2021/01/16 03:35:36;;;;;;;6.35;5.40;;;;;;;;;;5083627;28;20246;-59
2021/01/16 03:38:03;;;;;;;5.43;4.32;;;;;;;;;;5074601;28;20205;-60
2021/01/16 03:40:30;;;;;;;5.38;4.47;;;;;;;;;;5074606;28;20578;-60
2021/01/16 03:42:56;;;;;;;7.22;5.40;;;;;;;;;;5074659;28;20712;-61
2021/01/16 03:45:23;;;;;;;5.80;4.90;;;;;;;;;;5074716;28;20201;-59
2021/01/16 03:47:50;;;;;;;6.63;5.20;;;;;;;;;;5074887;28;20213;-60
2021/01/16 03:50:18;;;;;;;6.25;5.30;;;;;;;;;;5074249;28;20201;-60
2021/01/16 03:52:45;;;;;;;8.60;5.63;;;;;;;;;;5074287;28;20266;-60
2021/01/16 03:55:12;;;;;;;6.55;5.35;;;;;;;;;;5073784;28;20227;-61
2021/01/16 03:57:38;;;;;;;7.10;5.25;;;;;;;;;;5073310;28;20256;-60
2021/01/16 04:00:06;;;;;;;6.90;5.57;;;;;;;;;;5073672;28;20578;-61
2021/01/16 04:02:33;;;;;;;7.72;5.97;;;;;;;;;;5073572;28;20615;-60
2021/01/16 04:07:36;;;;;;;6.75;5.45;;;;;;;;;;5132546;27;20539;-60
2021/01/16 04:10:03;;;;;;;6.68;5.30;;;;;;;;;;5132771;27;20203;-61
2021/01/16 04:12:30;;;;;;;7.45;5.65;;;;;;;;;;5131570;27;20203;-61
2021/01/16 04:14:57;;;;;;;5.30;4.80;;;;;;;;;;5131970;27;20195;-61
2021/01/16 04:17:23;;;;;;;7.43;5.90;;;;;;;;;;5131783;27;20245;-61
2021/01/16 04:19:50;;;;;;;7.13;5.97;;;;;;;;;;5132954;27;20220;-60
2021/01/16 04:22:17;;;;;;;6.85;6.00;;;;;;;;;;5131878;27;20608;-60
2021/01/16 04:24:45;;;;;;;8.90;6.22;;;;;;;;;;5131255;27;20276;-61
2021/01/16 04:27:11;;;;;;;6.88;5.43;;;;;;;;;;5131400;27;20222;-60
2021/01/16 04:29:38;;;;;;;7.00;5.15;;;;;;;;;;5131181;27;20547;-60
2021/01/16 04:32:05;;;;;;;7.07;5.70;;;;;;;;;;5131228;27;20198;-61
2021/01/16 04:34:32;;;;;;;7.03;5.43;;;;;;;;;;5131300;27;20275;-61
2021/01/16 04:36:58;;;;;;;7.00;6.30;;;;;;;;;;5131436;27;20195;-60
2021/01/16 04:39:25;;;;;;;6.45;5.60;;;;;;;;;;5131257;27;20580;-60
2021/01/16 04:41:53;;;;;;;7.50;5.95;;;;;;;;;;5130982;27;20663;-60
2021/01/16 04:44:22;;;;;;;10.10;6.43;;;;;;;;;;5131120;27;20737;-60
2021/01/16 04:46:50;;;;;;;7.78;6.18;;;;;;;;;;5131593;27;20254;-61
2021/01/16 04:49:18;;;;;;;9.27;6.20;;;;;;;;;;5131644;27;20242;-61
2021/01/16 04:51:47;;;;;;;7.70;6.40;;;;;;;;;;5131925;27;20200;-60
2021/01/16 04:54:15;;;;;;;7.20;6.13;;;;;;;;;;5131701;27;20219;-60
2021/01/16 04:56:42;;;;;;;7.20;6.50;;;;;;;;;;5131234;27;20200;-61
2021/01/16 04:59:10;;;;;;;8.98;6.78;;;;;;;;;;5131503;27;20206;-61
2021/01/16 05:01:36;;;;;;;7.90;6.22;;;;;;;;;;5131545;27;20203;-60
2021/01/16 05:04:03;;;;;;;8.70;5.97;;;;;;;;;;5130938;27;20585;-60
2021/01/16 05:06:30;;;;;;;9.65;6.80;;;;;;;;;;5130506;27;20602;-59
2021/01/16 05:08:59;;;;;;;7.10;6.03;;;;;;;;;;5133653;27;20294;-60
2021/01/16 05:11:34;;;;;;;12.35;6.72;;;;;;;;;;5132724;27;20210;-61
2021/01/16 05:14:10;;;;;;;9.15;6.75;;;;;;;;;;5130086;27;20219;-61
2021/01/16 05:16:44;;;;;;;9.95;6.45;;;;;;;;;;5130652;27;20180;-60
2021/01/16 05:19:15;;;;;;;7.50;6.32;;;;;;;;;;5116267;28;20639;-60
2021/01/16 05:21:42;;;;;;;9.77;6.60;;;;;;;;;;5116586;28;20601;-60
2021/01/16 05:24:10;;;;;;;8.85;7.00;;;;;;;;;;5116331;28;20220;-61
2021/01/16 05:26:41;;;;;;;9.27;5.97;;;;;;;;;;5116861;28;20219;-60
2021/01/16 05:29:08;;;;;;;8.63;6.05;;;;;;;;;;5116612;28;20555;-60
2021/01/16 05:31:35;;;;;;;8.50;6.68;;;;;;;;;;5116526;28;20740;-61
2021/01/16 05:34:04;;;;;;;8.50;6.38;;;;;;;;;;5122724;28;20277;-60
2021/01/16 05:36:31;;;;;;;8.93;6.57;;;;;;;;;;5127755;28;20196;-60
2021/01/16 05:38:57;;;;;;;16.08;6.60;;;;;;;;;;5118710;28;20200;-60
2021/01/16 05:41:24;;;;;;;9.00;6.55;;;;;;;;;;5118357;28;20196;-60
2021/01/16 05:43:51;;;;;;;10.27;6.32;;;;;;;;;;5129525;28;20207;-62
2021/01/16 05:46:18;;;;;;;10.20;7.05;;;;;;;;;;5137617;28;20231;-66
2021/01/16 05:48:45;;;;;;;9.63;6.80;;;;;;;;;;5132992;28;20599;-61
2021/01/16 05:51:12;;;;;;;8.80;6.30;;;;;;;;;;5127947;28;20211;-60
2021/01/16 05:53:40;;;;;;;10.02;6.63;;;;;;;;;;5118833;28;20220;-61
2021/01/16 05:56:09;;;;;;;9.27;7.35;;;;;;;;;;5117666;28;20196;-59
2021/01/16 05:58:36;;;;;;;9.40;6.30;;;;;;;;;;5117378;28;20215;-59
2021/01/16 06:01:05;;;;;;;10.18;5.90;;;;;;;;;;5116500;28;20200;-59
2021/01/16 06:03:33;;;;;;;12.05;7.80;;;;;;;;;;5115571;28;20226;-60
2021/01/16 06:06:00;;;;;;;8.85;6.72;;;;;;;;;;5116958;28;20220;-60
2021/01/16 06:08:27;;;;;;;9.15;6.28;;;;;;;;;;5117862;28;20207;-60
2021/01/16 06:10:54;;;;;;;10.55;6.75;;;;;;;;;;5116957;28;20199;-60
2021/01/16 06:13:22;;;;;;;9.63;6.35;;;;;;;;;;5117263;28;20568;-60
2021/01/16 06:15:49;;;;;;;9.77;6.65;;;;;;;;;;5117142;28;20266;-60
2021/01/16 06:18:18;;;;;;;11.45;7.32;;;;;;;;;;5116995;28;20226;-60
2021/01/16 06:20:48;;;;;;;10.65;6.72;;;;;;;;;;5116418;28;20226;-60
2021/01/16 06:23:16;;;;;;;7.50;5.78;;;;;;;;;;5116774;28;20215;-59
2021/01/16 06:25:47;;;;;;;10.40;6.15;;;;;;;;;;5116612;28;20219;-59
2021/01/16 06:28:17;;;;;;;8.10;5.50;;;;;;;;;;5121623;28;20213;-61
2021/01/16 06:30:45;;;;;;;9.20;6.20;;;;;;;;;;5133421;28;20211;-60
2021/01/16 06:33:20;;;;;;;7.65;5.63;;;;;;;;;;5118495;28;20219;-59
2021/01/16 06:35:55;;;;;;;8.60;6.25;;;;;;;;;;5115624;28;20183;-61
2021/01/16 06:38:25;;;;;;;7.07;5.78;;;;;;;;;;5114918;28;20190;-62
2021/01/16 06:40:53;;;;;;;7.65;5.68;;;;;;;;;;5115304;28;20204;-60
2021/01/16 06:43:22;;;;;;;7.90;5.88;;;;;;;;;;5115036;27;20226;-60
2021/01/16 06:45:49;;;;;;;9.07;5.95;;;;;;;;;;5114872;28;20224;-60
2021/01/16 06:48:16;;;;;;;8.73;6.38;;;;;;;;;;5114919;28;20203;-61
2021/01/16 06:50:42;;;;;;;7.82;5.63;;;;;;;;;;5114797;28;20242;-61
2021/01/16 06:53:24;;;;;;;8.30;5.57;;;;;;;;;;5114445;28;20224;-61
2021/01/16 06:56:04;;;;;;;7.50;5.53;;;;;;;;;;5114891;28;20180;-60
2021/01/16 06:58:37;;;;;;;6.25;5.55;;;;;;;;;;5114902;28;20195;-59
2021/01/16 07:01:04;;;;;;;10.50;6.18;;;;;;;;;;5115174;28;20184;-61
2021/01/16 07:03:32;;;;;;;7.85;5.88;;;;;;;;;;5114802;28;20223;-61
2021/01/16 07:05:59;;;;;;;9.10;6.38;;;;;;;;;;5114784;28;20703;-61
2021/01/16 07:08:26;;;;;;;12.05;6.00;;;;;;;;;;5114820;28;20675;-60
2021/01/16 07:10:53;;;;;;;8.82;6.07;;;;;;;;;;5115092;28;20196;-61
2021/01/16 07:13:20;;;;;;;8.25;6.22;;;;;;;;;;5115155;28;20272;-60
2021/01/16 07:15:48;;;;;;;6.07;5.13;;;;;;;;;;5114667;28;20667;-60
2021/01/16 07:18:16;;;;;;;6.82;5.88;;;;;;;;;;5115280;28;20200;-60
2021/01/16 07:20:43;;;;;;;8.27;6.10;;;;;;;;;;5114737;28;20274;-60
2021/01/16 07:23:10;;;;;;;8.55;6.38;;;;;;;;;;5114587;28;20215;-61
2021/01/16 07:25:36;;;;;;;7.70;6.68;;;;;;;;;;5114581;28;20203;-61
2021/01/16 07:28:05;;;;;;;9.00;6.90;;;;;;;;;;5114651;28;20692;-61
2021/01/16 07:30:33;;;;;;;7.45;6.10;;;;;;;;;;5114269;28;20203;-61
2021/01/16 07:33:02;;;;;;;8.27;7.25;;;;;;;;;;5114214;28;20265;-61
2021/01/16 07:35:30;;;;;;;7.45;6.28;;;;;;;;;;5113894;28;20204;-60
2021/01/16 07:37:56;;;;;;;6.90;6.05;;;;;;;;;;5114039;28;20199;-61
2021/01/16 07:40:24;;;;;;;8.30;6.55;;;;;;;;;;5113763;28;20207;-61
2021/01/16 07:42:52;;;;;;;7.45;6.38;;;;;;;;;;5114074;28;20219;-61
2021/01/16 07:45:22;;;;;;;7.70;6.57;;;;;;;;;;5113968;28;20207;-60
2021/01/16 07:47:51;;;;;;;10.27;7.13;;;;;;;;;;5113798;28;20211;-60
2021/01/16 07:50:21;;;;;;;7.47;6.72;;;;;;;;;;5114382;28;20204;-61
2021/01/16 07:52:53;;;;;;;9.90;6.60;;;;;;;;;;5114014;28;20247;-61
2021/01/16 07:55:20;;;;;;;9.13;6.47;;;;;;;;;;5113830;28;20180;-60
2021/01/16 07:57:49;;;;;;;8.20;6.50;;;;;;;;;;5117310;28;20199;-60
2021/01/16 08:00:17;;;;;;;9.13;6.50;;;;;;;;;;5116383;28;20576;-61
2021/01/16 08:02:55;;;;;;;8.10;6.45;;;;;;;;;;5113697;28;20264;-61
2021/01/16 08:05:26;;;;;;;8.43;6.18;;;;;;;;;;5113633;28;20202;-61
2021/01/16 08:08:17;;;;;;;9.40;7.15;;;;;;;;;;5113264;28;20258;-60
2021/01/16 08:10:44;;;;;;;7.97;6.85;;;;;;;;;;5114317;28;20180;-59
2021/01/16 08:13:12;;;;;;;7.90;6.20;;;;;;;;;;5113622;28;20215;-61
2021/01/16 08:15:42;;;;;;;8.38;6.53;;;;;;;;;;5113757;28;20203;-60
2021/01/16 08:18:13;;;;;;;9.80;6.38;;;;;;;;;;5113683;28;20268;-60
2021/01/16 08:20:44;;;;;;;7.97;6.47;;;;;;;;;;5113440;28;20202;-61
2021/01/16 08:23:12;;;;;;;8.55;6.60;;;;;;;;;;5113729;28;20224;-60
2021/01/16 08:25:39;;;;;;;7.70;6.28;;;;;;;;;;5113716;28;20356;-60
2021/01/16 08:28:06;;;;;;;8.05;6.95;;;;;;;;;;5113505;28;20226;-61
2021/01/16 08:30:33;;;;;;;9.70;6.43;;;;;;;;;;5113470;28;20229;-60
2021/01/16 08:33:01;;;;;;;9.88;6.95;;;;;;;;;;5113284;28;20219;-61
2021/01/16 08:35:29;;;;;;;8.93;6.63;;;;;;;;;;5113445;28;20205;-60
2021/01/16 08:38:17;;;;;;;7.57;6.35;;;;;;;;;;5113552;28;20223;-61
2021/01/16 08:40:44;;;;;;;8.88;6.65;;;;;;;;;;5113345;28;20199;-61
2021/01/16 08:43:11;;;;;;;8.65;6.85;;;;;;;;;;5113494;28;20250;-60
2021/01/16 08:45:37;;;;;;;12.10;6.10;;;;;;;;;;5113235;28;20207;-60
2021/01/16 08:48:05;;;;;;;10.38;6.88;;;;;;;;;;5113646;28;20230;-60
2021/01/16 08:50:32;;;;;;;9.00;6.32;;;;;;;;;;5113196;28;20260;-60
2021/01/16 08:53:00;;;;;;;11.02;7.40;;;;;;;;;;5114936;28;20226;-61
2021/01/16 08:55:28;;;;;;;7.45;6.30;;;;;;;;;;5117311;28;20211;-60
2021/01/16 08:58:16;;;;;;;8.68;7.13;;;;;;;;;;5120898;28;20605;-61
2021/01/16 09:00:42;;;;;;;11.07;7.15;;;;;;;;;;5119902;28;20225;-60
2021/01/16 09:03:11;;;;;;;8.25;6.70;;;;;;;;;;5122589;28;20224;-61
2021/01/16 09:05:39;;;;;;;8.57;6.60;;;;;;;;;;5126171;28;20231;-61
2021/01/16 09:08:18;;;;;;;8.82;7.47;;;;;;;;;;5123117;28;20188;-61
2021/01/16 09:10:45;;;;;;;9.20;6.75;;;;;;;;;;5118030;28;20635;-61
2021/01/16 09:13:22;;;;;;;15.73;7.38;;;;;;;;;;5118651;28;20223;-61
2021/01/16 09:15:48;;;;;;;11.00;7.15;;;;;;;;;;5118124;28;20202;-60
2021/01/16 09:18:15;;;;;;;7.60;6.03;;;;;;;;;;5117430;28;20227;-60
2021/01/16 09:20:43;;;;;;;6.90;6.20;;;;;;;;;;5116776;27;20215;-60
2021/01/16 09:23:27;;;;;;;7.43;6.13;;;;;;;;;;5117669;28;20230;-60
2021/01/16 09:25:55;;;;;;;10.90;7.10;;;;;;;;;;5116578;28;20214;-61
2021/01/16 09:28:39;;;;;;;9.98;6.90;;;;;;;;;;5116805;28;20252;-61
2021/01/16 09:31:15;;;;;;;12.25;7.00;;;;;;;;;;5125588;28;20191;-60
2021/01/16 09:33:43;;;;;;;7.20;6.15;;;;;;;;;;5132023;28;20219;-60
2021/01/16 09:36:10;;;;;;;10.93;6.57;;;;;;;;;;5120472;28;20196;-60
2021/01/16 09:38:39;;;;;;;9.18;6.70;;;;;;;;;;5121523;28;20200;-61
2021/01/16 09:41:06;;;;;;;10.05;6.55;;;;;;;;;;5116736;28;20199;-59
2021/01/16 09:43:42;;;;;;;6.78;6.05;;;;;;;;;;5116082;28;20249;-61
2021/01/16 09:46:09;;;;;;;10.25;6.03;;;;;;;;;;5116394;28;20750;-61
2021/01/16 09:48:45;;;;;;;10.43;5.95;;;;;;;;;;5115940;28;20206;-60
2021/01/16 09:51:13;;;;;;;8.25;6.53;;;;;;;;;;5116206;28;20179;-60
2021/01/16 09:53:42;;;;;;;9.82;6.45;;;;;;;;;;5116019;28;20223;-61
2021/01/16 09:56:09;;;;;;;8.25;6.53;;;;;;;;;;5115879;28;20716;-60
2021/01/16 09:58:36;;;;;;;8.90;6.53;;;;;;;;;;5115959;28;20200;-61
2021/01/16 10:01:16;;;;;;;7.10;5.82;;;;;;;;;;5116195;28;20202;-60
2021/01/16 10:03:43;;;;;;;8.32;6.78;;;;;;;;;;5115949;28;20215;-60
2021/01/16 10:06:11;;;;;;;8.25;5.78;;;;;;;;;;5115788;28;20224;-61
2021/01/16 10:08:41;;;;;;;7.00;5.97;;;;;;;;;;5115979;28;20199;-60
2021/01/16 10:11:08;;;;;;;8.20;6.10;;;;;;;;;;5116500;28;20196;-60
2021/01/16 10:13:36;;;;;;;9.90;6.25;;;;;;;;;;5116532;28;20302;-61
2021/01/16 10:16:04;;;;;;;6.05;5.30;;;;;;;;;;5115853;28;20203;-61
2021/01/16 10:18:31;;;;;;;8.90;6.20;;;;;;;;;;5115352;28;20199;-60
2021/01/16 10:21:02;;;;;;;6.97;5.90;;;;;;;;;;5116044;28;20200;-60
2021/01/16 10:23:29;;;;;;;7.90;6.55;;;;;;;;;;5115701;28;20224;-61
2021/01/16 10:28:28;;;;;;;9.40;7.15;;;;;;;;;;5073830;28;20209;-54
2021/01/16 10:30:59;;;;;;;8.32;6.63;;;;;;;;;;5074241;28;20660;-53
2021/01/16 10:33:28;;;;;;;8.70;6.55;;;;;;;;;;5074517;28;20208;-54
2021/01/16 10:36:04;;;;;;;8.75;6.72;;;;;;;;;;5074180;28;20674;-55
2021/01/16 10:38:39;;;;;;;8.80;6.95;;;;;;;;;;5074550;28;20191;-55
2021/01/16 10:41:07;;;;;;;10.68;7.13;;;;;;;;;;5073792;28;20181;-55
2021/01/16 10:43:35;;;;;;;9.30;6.80;;;;;;;;;;5073808;28;20204;-55
2021/01/16 10:46:06;;;;;;;8.10;6.63;;;;;;;;;;5074307;28;20209;-55
2021/01/16 10:48:33;;;;;;;7.88;5.82;;;;;;;;;;5074097;28;20633;-55
2021/01/16 10:51:01;;;;;;;10.65;9.02;;;;;;;;;;5074057;28;20207;-55
2021/01/16 10:53:35;;;;;;;9.38;7.38;;;;;;;;;;5074366;28;20197;-56
2021/01/16 10:56:07;;;;;;;14.27;8.20;;;;;;;;;;5073944;28;20346;-55
2021/01/16 10:58:35;;;;;;;9.05;6.90;;;;;;;;;;5073993;28;20714;-55
2021/01/16 11:01:02;;;;;;;8.05;6.93;;;;;;;;;;5073944;28;20280;-55
2021/01/16 11:03:30;;;;;;;10.27;7.40;;;;;;;;;;5074197;28;20197;-55
2021/01/16 11:05:57;;;;;;;11.10;7.75;;;;;;;;;;5073794;28;20205;-55
2021/01/16 11:08:28;;;;;;;12.90;8.00;;;;;;;;;;5073683;28;20213;-55
2021/01/16 11:10:55;;;;;;;10.80;8.85;;;;;;;;;;5073624;28;20208;-55
2021/01/16 11:13:23;;;;;;;12.52;7.88;;;;;;;;;;5073202;28;20262;-56
2021/01/16 11:15:55;;;;;;;12.45;8.13;;;;;;;;;;5072686;28;20694;-55
2021/01/16 11:18:41;;;;;;;10.93;8.77;;;;;;;;;;5073521;28;20201;-55
2021/01/16 11:21:09;;;;;;;11.50;9.27;;;;;;;;;;5073029;28;20190;-56
2021/01/16 11:23:45;;;;;;;10.85;7.93;;;;;;;;;;5073459;28;20204;-54
2021/01/16 11:26:12;;;;;;;15.82;9.20;;;;;;;;;;5073222;28;20380;-56
2021/01/16 11:28:49;;;;;;;10.98;9.35;;;;;;;;;;5073871;28;20208;-55
2021/01/16 11:31:27;;;;;;;10.60;8.98;;;;;;;;;;5073544;28;20212;-57
2021/01/16 11:34:17;;;;;;;12.52;8.68;;;;;;;;;;5073453;28;20209;-57
2021/01/16 11:36:53;;;;;;;10.52;8.43;;;;;;;;;;5073402;28;20213;-55
2021/01/16 11:39:34;;;;;;;10.48;8.05;;;;;;;;;;5072800;28;20181;-55
2021/01/16 11:42:01;;;;;;;10.15;7.70;;;;;;;;;;5073247;28;20208;-54
2021/01/16 11:44:28;;;;;;;8.38;7.22;;;;;;;;;;5072618;28;20672;-56
2021/01/16 11:46:55;;;;;;;10.70;8.18;;;;;;;;;;5072408;28;20278;-55
2021/01/16 11:49:22;;;;;;;9.38;7.63;;;;;;;;;;5073238;28;20270;-55
2021/01/16 11:51:49;;;;;;;11.30;7.65;;;;;;;;;;5074349;28;20197;-55
2021/01/16 11:54:25;;;;;;;8.05;6.63;;;;;;;;;;5073525;28;20209;-56
2021/01/16 11:56:52;;;;;;;9.70;7.05;;;;;;;;;;5072753;28;20216;-56
2021/01/16 11:59:20;;;;;;;8.52;6.10;;;;;;;;;;5072461;28;20580;-55
2021/01/16 12:01:47;;;;;;;7.97;5.97;;;;;;;;;;5072780;28;20229;-55
2021/01/16 12:04:14;;;;;;;13.93;6.55;;;;;;;;;;5072844;28;20208;-55
2021/01/16 12:06:41;;;;;;;9.35;6.05;;;;;;;;;;5072780;28;20221;-55
2021/01/16 12:09:09;;;;;;;7.20;5.90;;;;;;;;;;5072996;28;20208;-55
2021/01/16 12:11:36;;;;;;;9.85;7.07;;;;;;;;;;5072566;28;20205;-55
2021/01/16 12:14:02;;;;;;;9.00;6.35;;;;;;;;;;5072829;28;20204;-54
2021/01/16 12:16:34;;;;;;;9.20;6.93;;;;;;;;;;5072474;28;20220;-56
2021/01/16 12:19:01;;;;;;;8.70;7.28;;;;;;;;;;5072365;28;20280;-55
2021/01/16 12:21:30;;;;;;;10.43;7.80;;;;;;;;;;5072600;28;20197;-55
2021/01/16 12:23:59;;;;;;;11.02;8.07;;;;;;;;;;5072968;28;20506;-55
2021/01/16 12:26:26;;;;;;;10.20;8.48;;;;;;;;;;5072426;28;20233;-56
2021/01/16 12:28:55;;;;;;;13.35;9.05;;;;;;;;;;5075722;28;20201;-55
2021/01/16 12:31:22;;;;;;;13.52;10.20;;;;;;;;;;5076656;28;20577;-56
2021/01/16 12:33:49;;;;;;;17.02;11.13;;;;;;;;;;5076379;28;20208;-56
2021/01/16 12:36:17;;;;;;;11.23;9.15;;;;;;;;;;5076654;28;20600;-55
2021/01/16 12:38:48;;;;;;;11.23;9.60;;;;;;;;;;5076570;28;20228;-56
2021/01/16 12:41:20;;;;;;;15.73;11.20;;;;;;;;;;5076575;28;20275;-56
2021/01/16 12:43:48;;;;;;;14.20;10.45;;;;;;;;;;5077307;28;20205;-55
2021/01/16 12:46:15;;;;;;;12.57;10.10;;;;;;;;;;5076342;28;20224;-55
2021/01/16 12:48:42;;;;;;;18.35;10.95;;;;;;;;;;5076455;28;20270;-55
2021/01/16 12:51:10;;;;;;;13.25;10.23;;;;;;;;;;5076028;28;20201;-56
2021/01/16 12:53:37;;;;;;;14.30;10.55;;;;;;;;;;5076065;28;20531;-56
2021/01/16 12:56:14;;;;;;;12.23;9.43;;;;;;;;;;5075709;28;20197;-56
2021/01/16 12:58:40;;;;;;;15.32;10.95;;;;;;;;;;5075628;28;20185;-58
2021/01/16 13:01:07;;;;;;;17.05;10.88;;;;;;;;;;5075991;28;20323;-55
2021/01/16 13:03:34;;;;;;;16.23;10.57;;;;;;;;;;5076099;28;20227;-55
2021/01/16 13:06:02;;;;;;;14.23;9.77;;;;;;;;;;5075787;28;20205;-55
2021/01/16 13:08:29;;;;;;;12.65;10.45;;;;;;;;;;5076053;28;20201;-55
2021/01/16 13:10:56;;;;;;;13.25;10.05;;;;;;;;;;5075698;28;20576;-55
2021/01/16 13:13:24;;;;;;;14.50;11.10;;;;;;;;;;5075987;28;20209;-56
2021/01/16 13:15:54;;;;;;;15.00;10.25;;;;;;;;;;5076039;28;20278;-55
2021/01/16 13:18:21;;;;;;;15.68;10.80;;;;;;;;;;5075607;28;20236;-55
2021/01/16 13:20:50;;;;;;;16.58;11.65;;;;;;;;;;5075314;28;20665;-56
2021/01/16 13:23:17;;;;;;;14.18;11.27;;;;;;;;;;5075456;28;20205;-56
2021/01/16 13:25:44;;;;;;;12.25;9.55;;;;;;;;;;5075765;28;20205;-54
2021/01/16 13:28:14;;;;;;;12.40;10.23;;;;;;;;;;5075153;28;20685;-55
2021/01/16 13:30:43;;;;;;;15.65;9.73;;;;;;;;;;5075737;28;20201;-55
2021/01/16 13:33:09;;;;;;;16.83;10.10;;;;;;;;;;5075378;28;20197;-55
2021/01/16 13:35:36;;;;;;;15.07;10.60;;;;;;;;;;5075226;28;20212;-54
2021/01/16 13:38:03;;;;;;;15.43;11.60;;;;;;;;;;5074299;28;20722;-54
2021/01/16 13:40:31;;;;;;;15.75;10.98;;;;;;;;;;5075231;28;20247;-53
2021/01/16 13:43:03;;;;;;;13.10;10.00;;;;;;;;;;5076035;28;20201;-55
2021/01/16 13:45:30;;;;;;;13.15;10.00;;;;;;;;;;5075831;28;20284;-55
2021/01/16 13:48:00;;;;;;;18.20;11.57;;;;;;;;;;5074566;28;20257;-56
2021/01/16 13:50:27;;;;;;;13.55;10.15;;;;;;;;;;5074274;28;20205;-57
2021/01/16 13:52:54;;;;;;;13.48;10.20;;;;;;;;;;5074818;28;20201;-55
2021/01/16 13:55:21;;;;;;;14.75;10.50;;;;;;;;;;5074480;28;20201;-55
2021/01/16 13:58:00;;;;;;;17.67;12.68;;;;;;;;;;5075157;28;20221;-55
2021/01/16 14:00:28;;;;;;;14.60;11.20;;;;;;;;;;5075000;28;20189;-55
2021/01/16 14:02:55;;;;;;;14.75;10.82;;;;;;;;;;5074579;28;20197;-55
2021/01/16 14:05:26;;;;;;;15.60;11.60;;;;;;;;;;5075039;28;20619;-55
2021/01/16 14:07:53;;;;;;;18.00;11.43;;;;;;;;;;5074319;28;20236;-54
2021/01/16 14:10:24;;;;;;;17.73;11.05;;;;;;;;;;5073982;28;20669;-55
2021/01/16 14:13:05;;;;;;;14.77;10.60;;;;;;;;;;5073631;28;20300;-54
2021/01/16 14:15:31;;;;;;;14.65;10.95;;;;;;;;;;5074134;28;20185;-54
2021/01/16 14:17:58;;;;;;;16.27;10.90;;;;;;;;;;5073620;28;20229;-55
2021/01/16 14:20:31;;;;;;;13.23;10.55;;;;;;;;;;5073853;28;20212;-55
2021/01/16 14:22:58;;;;;;;16.58;11.88;;;;;;;;;;5074262;28;20188;-54
2021/01/16 14:25:26;;;;;;;15.10;11.13;;;;;;;;;;5073743;28;20208;-56
2021/01/16 14:27:52;;;;;;;15.85;11.50;;;;;;;;;;5073272;28;20308;-57
2021/01/16 14:30:20;;;;;;;14.45;10.75;;;;;;;;;;5073790;28;20209;-55
2021/01/16 14:32:58;;;;;;;18.80;12.02;;;;;;;;;;5074177;28;20215;-54
2021/01/16 14:35:25;;;;;;;15.65;11.93;;;;;;;;;;5073917;28;20205;-54
2021/01/16 14:37:56;;;;;;;16.45;11.35;;;;;;;;;;5074088;28;20221;-55
2021/01/16 14:40:30;;;;;;;17.88;11.00;;;;;;;;;;5074145;28;20212;-55
2021/01/16 14:43:00;;;;;;;14.45;10.38;;;;;;;;;;5074123;28;20689;-54
2021/01/16 14:45:27;;;;;;;16.95;11.57;;;;;;;;;;5074273;28;20193;-55
2021/01/16 14:47:54;;;;;;;14.48;10.65;;;;;;;;;;5074088;28;20642;-55
2021/01/16 14:50:25;;;;;;;15.93;11.32;;;;;;;;;;5072819;28;20197;-54